createdAt,value
2022-08-08T00:00:54.656Z,36.36811
2022-08-08T00:06:03.769Z,36.18322
2022-08-08T00:11:07.932Z,34.9312
2022-08-08T00:16:14.942Z,36.57843
2022-08-08T00:21:16.933Z,34.83748
2022-08-08T00:26:26.300Z,36.58732
2022-08-08T00:32:28.742Z,36.10538
2022-08-08T00:37:47.742Z,36.7217
2022-08-08T00:43:06.043Z,36.76714
2022-08-08T00:48:29.312Z,36.04184
2022-08-08T00:53:32.270Z,35.14215
2022-08-08T00:58:54.070Z,35.78197
2022-08-08T01:04:02.028Z,35.6676
2022-08-08T01:09:36.487Z,36.25914
2022-08-08T01:14:53.998Z,35.72288
2022-08-08T01:20:03.284Z,35.73464
2022-08-08T01:25:05.370Z,35.82772
2022-08-08T01:30:10.160Z,35.31878
2022-08-08T01:35:12.484Z,35.06399
2022-08-08T01:40:14.748Z,34.73328
2022-08-08T01:45:16.574Z,34.63035
2022-08-08T01:50:20.757Z,34.66784
2022-08-08T01:56:27.134Z,34.40988
2022-08-08T02:02:00.330Z,33.68524
2022-08-08T02:07:06.655Z,33.54991
2022-08-08T02:12:08.678Z,33.44253
2022-08-08T02:17:20.399Z,33.38185
2022-08-08T02:22:28.245Z,32.50061
2022-08-08T02:27:38.918Z,31.96691
2022-08-08T02:32:44.692Z,31.96913
2022-08-08T02:37:53.390Z,31.55933
2022-08-08T02:44:35.447Z,31.19274
2022-08-08T02:49:50.882Z,30.72163
2022-08-08T02:54:53.430Z,29.89632
2022-08-08T02:59:58.476Z,30.86712
2022-08-08T03:05:17.616Z,29.63615
2022-08-08T03:10:33.412Z,29.08055
2022-08-08T03:16:00.297Z,29.63647
2022-08-08T03:21:10.200Z,29.51067
2022-08-08T03:26:16.484Z,29.15202
2022-08-08T03:31:25.435Z,28.21745
2022-08-08T03:36:30.092Z,28.46841
2022-08-08T03:42:28.742Z,28.7254
2022-08-08T03:47:39.514Z,28.3083
2022-08-08T03:52:47.895Z,26.40647
2022-08-08T03:58:36.129Z,27.18188
2022-08-08T04:03:58.388Z,25.90045
2022-08-08T04:09:10.758Z,26.9881
2022-08-08T04:14:35.373Z,25.54213
2022-08-08T04:19:37.895Z,26.21175
2022-08-08T04:24:40.644Z,26.1514
2022-08-08T04:29:55.396Z,26.30292
2022-08-08T04:35:02.958Z,26.31118
2022-08-08T04:40:08.145Z,26.05387
2022-08-08T04:45:14.163Z,25.8906
2022-08-08T04:50:23.919Z,25.52943
2022-08-08T04:55:29.251Z,24.37794
2022-08-08T05:00:49.933Z,24.05076
2022-08-08T05:05:53.634Z,24.75594
2022-08-08T05:10:55.322Z,25.00022
2022-08-08T05:16:47.961Z,23.23219
2022-08-08T05:22:00.010Z,24.49896
2022-08-08T05:27:02.422Z,24.41288
2022-08-08T05:32:06.152Z,23.25728
2022-08-08T05:37:18.516Z,24.09333
2022-08-08T05:42:25.733Z,23.95642
2022-08-08T05:47:29.897Z,23.73057
2022-08-08T05:52:54.780Z,23.77155
2022-08-08T05:58:04.067Z,23.61336
2022-08-08T06:03:07.628Z,23.56413
2022-08-08T06:08:28.266Z,23.34209
2022-08-08T06:13:47.066Z,22.90565
2022-08-08T06:18:50.142Z,22.8688
2022-08-08T06:24:02.278Z,21.92445
2022-08-08T06:29:10.678Z,22.6995
2022-08-08T06:34:52.552Z,22.78844
2022-08-08T06:40:16.169Z,21.80819
2022-08-08T06:45:18.499Z,21.80343
2022-08-08T06:50:32.334Z,22.05627
2022-08-08T06:55:37.427Z,21.95463
2022-08-08T07:00:41.027Z,22.00005
2022-08-08T07:05:42.834Z,21.51692
2022-08-08T07:11:03.627Z,21.54169
2022-08-08T07:16:10.259Z,21.33491
2022-08-08T07:21:19.078Z,21.21135
2022-08-08T07:26:28.942Z,21.02045
2022-08-08T07:31:35.300Z,20.87878
2022-08-08T07:36:37.427Z,17.70628
2022-08-08T07:42:03.527Z,20.19587
2022-08-08T07:47:06.483Z,20.48174
2022-08-08T07:52:09.033Z,20.74506
2022-08-08T07:57:17.058Z,20.39852
2022-08-08T08:02:34.910Z,19.10194
2022-08-08T08:07:40.102Z,18.83291
2022-08-08T08:12:43.531Z,19.51105
2022-08-08T08:17:48.506Z,20.07961
2022-08-08T08:22:51.122Z,19.82995
2022-08-08T08:27:53.374Z,19.46594
2022-08-08T08:32:55.016Z,17.88765
2022-08-08T08:38:15.796Z,19.10226
2022-08-08T08:43:20.290Z,18.75445
2022-08-08T08:48:28.908Z,19.36938
2022-08-08T08:53:56.199Z,19.10194
2022-08-08T08:59:01.715Z,19.29125
2022-08-08T09:04:03.715Z,19.07653
2022-08-08T09:09:05.330Z,18.55847
2022-08-08T09:14:09.276Z,18.74524
2022-08-08T09:19:12.198Z,18.45747
2022-08-08T09:24:14.472Z,18.43333
2022-08-08T09:29:22.553Z,18.65694
2022-08-08T09:34:32.442Z,18.74588
2022-08-08T09:39:34.708Z,18.53433
2022-08-08T09:44:38.237Z,18.35392
2022-08-08T09:49:49.851Z,18.7932
2022-08-08T09:54:52.025Z,17.91306
2022-08-08T10:00:28.719Z,16.80423
2022-08-08T10:05:36.057Z,18.14111
2022-08-08T10:10:49.794Z,17.33339
2022-08-08T10:16:00.789Z,17.42137
2022-08-08T10:21:22.940Z,17.47791
2022-08-08T10:26:30.640Z,17.6796
2022-08-08T10:31:46.733Z,17.44773
2022-08-08T10:36:49.265Z,17.12122
2022-08-08T10:41:58.830Z,17.56176
2022-08-08T10:47:20.719Z,16.37893
2022-08-08T10:52:28.119Z,17.43598
2022-08-08T10:57:45.144Z,17.03355
2022-08-08T11:02:52.325Z,17.19618
2022-08-08T11:08:38.099Z,16.53679
2022-08-08T11:13:41.054Z,16.75341
2022-08-08T11:18:53.872Z,16.66289
2022-08-08T11:24:02.125Z,16.31287
2022-08-08T11:29:04.729Z,15.08337
2022-08-08T11:34:22.911Z,15.7799
2022-08-08T11:39:27.657Z,16.34145
2022-08-08T11:44:39.111Z,16.52536
2022-08-08T11:49:42.688Z,16.27317
2022-08-08T11:54:46.683Z,16.41101
2022-08-08T11:59:58.400Z,16.0845
2022-08-08T12:05:04.288Z,16.02637
2022-08-08T12:10:08.828Z,15.77291
2022-08-08T12:15:10.744Z,15.96793
2022-08-08T12:20:14.826Z,15.97174
2022-08-08T12:25:16.448Z,15.80595
2022-08-08T12:30:21.727Z,15.77196
2022-08-08T12:35:26.860Z,15.53788
2022-08-08T12:40:29.854Z,15.51723
2022-08-08T12:45:58.204Z,15.36065
2022-08-08T12:51:04.383Z,15.2209
2022-08-08T12:56:18.713Z,14.9541
2022-08-08T13:01:36.239Z,15.66524
2022-08-08T13:06:38.885Z,13.6757
2022-08-08T13:12:04.040Z,15.22058
2022-08-08T13:18:08.559Z,14.90137
2022-08-08T13:23:30.855Z,15.39781
2022-08-08T13:28:42.068Z,15.55439
2022-08-08T13:33:44.478Z,15.6014
2022-08-08T13:38:46.081Z,15.70463
2022-08-08T13:43:49.936Z,15.75672
2022-08-08T13:50:33.605Z,16.10356
2022-08-08T13:55:39.903Z,16.45326
2022-08-08T14:00:45.976Z,16.72863
2022-08-08T14:06:00.525Z,16.08768
2022-08-08T14:11:03.331Z,15.65317
2022-08-08T14:16:15.835Z,17.34895
2022-08-08T14:21:20.762Z,16.7226
2022-08-08T14:26:28.106Z,16.89825
2022-08-08T14:31:36.830Z,15.27394
2022-08-08T14:37:08.293Z,14.88676
2022-08-08T14:42:10.264Z,15.57853
2022-08-08T14:47:16.898Z,16.25983
2022-08-08T14:52:23.252Z,17.69834
2022-08-08T14:58:02.985Z,16.82138
2022-08-08T15:03:16.081Z,18.35202
2022-08-08T15:08:22.111Z,17.12153
2022-08-08T15:13:40.954Z,17.58749
2022-08-08T15:19:03.132Z,16.39037
2022-08-08T15:24:04.746Z,18.25038
2022-08-08T15:29:14.291Z,19.43259
2022-08-08T15:34:18.812Z,18.54926
2022-08-08T15:39:37.439Z,18.96313
2022-08-08T15:44:41.018Z,20.2073
2022-08-08T15:49:43.889Z,20.60053
2022-08-08T15:54:46.108Z,20.19491
2022-08-08T16:00:10.971Z,21.21675
2022-08-08T16:05:36.062Z,22.49779
2022-08-08T16:13:28.300Z,21.35556
2022-08-08T16:18:35.957Z,22.07723
2022-08-08T16:23:37.568Z,22.48763
2022-08-08T16:28:41.479Z,24.04123
2022-08-08T16:33:59.060Z,24.04663
2022-08-08T16:39:01.310Z,24.62666
2022-08-08T16:44:12.855Z,24.90556
2022-08-08T16:49:14.653Z,24.98592
2022-08-08T16:55:18.387Z,25.88965
2022-08-08T17:00:27.422Z,25.66284
2022-08-08T17:05:31.363Z,25.75973
2022-08-08T17:10:57.923Z,26.88899
2022-08-08T17:16:15.204Z,26.58087
2022-08-08T17:21:17.390Z,28.00144
2022-08-08T17:26:28.826Z,28.47603
2022-08-08T17:31:44.243Z,27.85691
2022-08-08T17:37:00.363Z,29.09961
2022-08-08T17:42:04.962Z,28.50621
2022-08-08T17:47:06.670Z,28.54846
2022-08-08T17:52:11.473Z,29.03798
2022-08-08T17:57:14.231Z,29.20984
2022-08-08T18:02:21.231Z,29.33468
2022-08-08T18:08:02.356Z,28.83182
2022-08-08T18:13:07.580Z,30.68414
2022-08-08T18:18:29.260Z,30.91985
2022-08-08T18:23:33.695Z,31.31218
2022-08-08T18:28:54.796Z,30.67906
2022-08-08T18:34:12.268Z,30.80867
2022-08-08T18:39:29.612Z,30.92526
2022-08-08T18:44:32.913Z,31.51232
2022-08-08T18:49:54.694Z,31.21307
2022-08-08T18:55:09.634Z,31.12444
2022-08-08T19:00:16.816Z,31.16605
2022-08-08T19:05:21.577Z,31.91989
2022-08-08T19:10:23.370Z,31.77376
2022-08-08T19:15:33.879Z,32.42754
2022-08-08T19:20:36.159Z,32.55747
2022-08-08T19:26:02.019Z,32.07174
2022-08-08T19:31:31.042Z,31.38874
2022-08-08T19:36:36.565Z,30.75022
2022-08-08T19:41:39.888Z,32.14799
2022-08-08T19:46:43.177Z,32.07714
2022-08-08T19:51:46.654Z,32.425
2022-08-08T19:56:50.691Z,33.51623
2022-08-08T20:02:03.552Z,33.64902
2022-08-08T20:08:30.538Z,34.15573
2022-08-08T20:14:31.545Z,35.40202
2022-08-08T20:19:42.247Z,34.77299
2022-08-08T20:24:45.148Z,34.71994
2022-08-08T20:30:01.078Z,35.59898
2022-08-08T20:35:03.163Z,36.8221
2022-08-08T20:40:04.829Z,36.31379
2022-08-08T20:45:06.490Z,37.2853
2022-08-08T20:50:10.015Z,37.42508
2022-08-08T20:55:16.228Z,38.59453
2022-08-08T21:00:27.497Z,38.44998
2022-08-08T21:05:31.957Z,37.45081
2022-08-08T21:10:33.854Z,37.63953
2022-08-08T21:16:05.811Z,39.23851
2022-08-08T21:21:29.755Z,38.12529
2022-08-08T21:26:42.920Z,38.83503
2022-08-08T21:31:53.030Z,39.90632
2022-08-08T21:37:05.290Z,38.25141
2022-08-08T21:42:13.043Z,39.00246
2022-08-08T21:48:08.717Z,39.11778
2022-08-08T21:54:34.835Z,39.05075
2022-08-08T22:00:02.836Z,39.73413
2022-08-08T22:05:06.456Z,40.84483
2022-08-08T22:10:09.362Z,39.98225
2022-08-08T22:15:11.206Z,39.63087
2022-08-08T22:20:23.709Z,40.46835
2022-08-08T22:25:29.960Z,38.97418
2022-08-08T22:31:21.764Z,38.94082
2022-08-08T22:36:34.346Z,39.95207
2022-08-08T22:41:36.420Z,39.44406
2022-08-08T22:46:41.152Z,39.63786
2022-08-08T22:51:46.812Z,37.15917
2022-08-08T22:56:50.123Z,37.81299
2022-08-08T23:02:03.721Z,38.7394
2022-08-08T23:07:06.372Z,37.66208
2022-08-08T23:12:28.705Z,37.61284
2022-08-08T23:17:54.074Z,38.19486
2022-08-08T23:22:56.164Z,37.2154
2022-08-08T23:27:57.852Z,36.5349
2022-08-08T23:33:01.148Z,38.24156
2022-08-08T23:38:03.885Z,39.27377
2022-08-08T23:43:05.670Z,38.53925
2022-08-08T23:48:59.628Z,38.54401
2022-08-08T23:54:53.207Z,38.3051
